Time;durP1;ratioP1;P1;durP2;ratioP2;P2;SDS_P1;SDS_P2;PMS_P1;PMS_P2;Temp;Humidity;BMP_temperature;BMP_pressure;BME280_temperature;BME280_humidity;BME280_pressure;Samples;Min_cycle;Max_cycle;Signal;HPM_P1;HPM_P2
2023/04/15 00:01:36;;;;;;;39.53;27.77;;;9.60;99.90;;;;;;5051511;28;20409;-52
2023/04/15 00:04:04;;;;;;;35.53;26.30;;;9.80;99.90;;;;;;5051776;28;20793;-50
2023/04/15 00:06:30;;;;;;;32.20;26.43;;;9.60;99.90;;;;;;5051642;28;20431;-49
2023/04/15 00:08:57;;;;;;;34.73;28.10;;;9.60;99.90;;;;;;5051159;28;20458;-50
2023/04/15 00:11:24;;;;;;;31.33;25.80;;;9.70;99.90;;;;;;5051599;28;21035;-49
2023/04/15 00:13:50;;;;;;;33.20;27.53;;;9.40;99.90;;;;;;5051288;28;20581;-50
2023/04/15 00:16:17;;;;;;;37.13;29.87;;;9.40;99.90;;;;;;5051439;28;20492;-51
2023/04/15 00:18:44;;;;;;;33.80;27.17;;;9.60;99.90;;;;;;5051175;28;20508;-50
2023/04/15 00:21:12;;;;;;;33.80;26.37;;;9.40;99.90;;;;;;5051430;28;20445;-49
2023/04/15 00:23:39;;;;;;;35.73;28.53;;;9.80;99.90;;;;;;5051317;28;20526;-50
2023/04/15 00:26:06;;;;;;;33.20;26.27;;;9.70;99.90;;;;;;5051324;28;20803;-49
2023/04/15 00:28:32;;;;;;;32.80;28.00;;;9.50;99.90;;;;;;5050971;28;20461;-50
2023/04/15 00:30:59;;;;;;;41.67;30.30;;;9.40;99.90;;;;;;5051218;28;20525;-49
2023/04/15 00:33:26;;;;;;;40.67;30.20;;;9.40;99.90;;;;;;5049559;28;20447;-49
2023/04/15 00:35:53;;;;;;;40.40;29.97;;;9.70;99.90;;;;;;5051353;28;20434;-50
2023/04/15 00:38:21;;;;;;;35.20;28.00;;;9.60;99.90;;;;;;5050615;28;20450;-50
2023/04/15 00:40:48;;;;;;;40.33;31.37;;;9.90;99.90;;;;;;5051328;28;20438;-50
2023/04/15 00:43:15;;;;;;;43.20;30.63;;;9.60;99.90;;;;;;5052029;28;20490;-49
2023/04/15 00:45:42;;;;;;;38.10;29.63;;;9.60;99.90;;;;;;5053737;28;20830;-50
2023/04/15 00:48:10;;;;;;;40.90;31.80;;;9.00;99.90;;;;;;5054078;28;20888;-48
2023/04/15 00:50:37;;;;;;;43.83;31.57;;;9.60;99.90;;;;;;5055037;28;20430;-50
2023/04/15 00:53:04;;;;;;;41.80;31.17;;;9.50;99.90;;;;;;5055384;28;20449;-49
2023/04/15 00:55:32;;;;;;;40.03;31.60;;;9.70;99.90;;;;;;5054968;28;20438;-50
2023/04/15 00:57:59;;;;;;;42.57;32.50;;;9.50;99.90;;;;;;5054639;28;20466;-49
2023/04/15 01:00:27;;;;;;;40.53;31.60;;;9.60;99.90;;;;;;5053426;28;20429;-51
2023/04/15 01:02:54;;;;;;;37.87;29.93;;;9.20;99.90;;;;;;5054701;28;20467;-49
2023/04/15 01:05:21;;;;;;;46.50;32.33;;;9.50;99.90;;;;;;5053602;28;20825;-49
2023/04/15 01:07:48;;;;;;;47.93;32.80;;;9.70;99.90;;;;;;5054612;28;20446;-48
2023/04/15 01:10:15;;;;;;;52.23;34.73;;;9.60;99.90;;;;;;5052933;28;20454;-48
2023/04/15 01:12:44;;;;;;;45.23;33.60;;;9.60;99.90;;;;;;5054523;28;20459;-50
2023/04/15 01:15:11;;;;;;;43.97;32.37;;;9.40;99.90;;;;;;5054542;28;20417;-50
2023/04/15 01:17:38;;;;;;;43.40;33.40;;;9.30;99.90;;;;;;5054333;28;20454;-49
2023/04/15 01:20:09;;;;;;;45.30;33.80;;;9.30;99.90;;;;;;5054007;28;20406;-49
2023/04/15 01:22:36;;;;;;;51.37;34.47;;;9.40;99.90;;;;;;5053015;28;20455;-49
2023/04/15 01:25:07;;;;;;;44.40;32.93;;;9.70;99.90;;;;;;5054349;28;20886;-51
2023/04/15 01:27:35;;;;;;;44.90;32.73;;;9.60;99.90;;;;;;5054465;28;20428;-50
2023/04/15 01:30:04;;;;;;;51.57;33.50;;;9.00;99.90;;;;;;5052621;28;20456;-49
2023/04/15 01:32:32;;;;;;;44.97;33.27;;;9.50;99.90;;;;;;5052609;28;20572;-48
2023/04/15 01:34:58;;;;;;;45.97;34.30;;;9.70;99.90;;;;;;5054323;28;20919;-50
2023/04/15 01:37:26;;;;;;;46.07;33.73;;;9.60;99.90;;;;;;5054777;28;20440;-49
2023/04/15 01:39:53;;;;;;;53.53;35.67;;;9.60;99.90;;;;;;5052491;28;20451;-50
2023/04/15 01:42:21;;;;;;;49.80;33.73;;;9.20;99.90;;;;;;5054165;28;20428;-49
2023/04/15 01:44:50;;;;;;;49.03;35.00;;;9.60;99.90;;;;;;5052854;28;20421;-51
2023/04/15 01:47:16;;;;;;;47.17;32.60;;;9.60;99.90;;;;;;5052523;28;20466;-49
2023/04/15 01:49:43;;;;;;;50.90;34.23;;;9.60;99.90;;;;;;5054211;28;20885;-50
2023/04/15 01:52:10;;;;;;;47.03;34.80;;;9.80;99.90;;;;;;5052491;28;20449;-49
2023/04/15 01:54:36;;;;;;;45.00;34.53;;;9.90;99.90;;;;;;5051394;28;20447;-50
2023/04/15 01:57:04;;;;;;;47.47;34.43;;;9.70;99.90;;;;;;5053800;28;20450;-50
2023/04/15 01:59:31;;;;;;;47.50;33.03;;;9.40;99.90;;;;;;5034105;22;20500;-51
2023/04/15 02:02:00;;;;;;;51.47;33.73;;;10.40;99.90;;;;;;5013486;28;20452;-51
2023/04/15 02:04:27;;;;;;;46.00;32.67;;;9.50;99.90;;;;;;5013376;28;20415;-52
2023/04/15 02:06:54;;;;;;;51.07;34.80;;;9.60;99.90;;;;;;5014366;28;20423;-51
2023/04/15 02:09:21;;;;;;;50.63;34.57;;;9.80;99.90;;;;;;5012802;28;20504;-51
2023/04/15 02:11:48;;;;;;;50.97;36.17;;;9.70;99.90;;;;;;5014375;28;20496;-51
2023/04/15 02:14:15;;;;;;;46.73;32.53;;;9.70;99.90;;;;;;5013013;28;20459;-51
2023/04/15 02:16:41;;;;;;;49.97;34.10;;;9.90;99.90;;;;;;5014059;28;20444;-52
2023/04/15 02:19:09;;;;;;;55.47;35.23;;;9.10;99.90;;;;;;5012374;28;20473;-51
2023/04/15 02:21:38;;;;;;;55.60;36.27;;;9.60;99.90;;;;;;5012843;28;20427;-52
2023/04/15 02:24:05;;;;;;;45.30;33.13;;;9.60;99.90;;;;;;5014014;28;20444;-51
2023/04/15 02:26:33;;;;;;;48.47;33.00;;;9.80;99.90;;;;;;5012636;28;20449;-51
2023/04/15 02:28:59;;;;;;;52.20;35.97;;;9.80;99.90;;;;;;5013481;28;20822;-52
2023/04/15 02:31:26;;;;;;;54.23;33.00;;;9.00;99.90;;;;;;5013780;28;20415;-51
2023/04/15 02:33:53;;;;;;;49.73;34.33;;;9.90;99.90;;;;;;5013664;28;20480;-51
2023/04/15 02:36:22;;;;;;;52.13;33.20;;;9.80;99.90;;;;;;5013868;28;20528;-51
2023/04/15 02:38:49;;;;;;;49.50;33.70;;;9.80;99.90;;;;;;5013175;28;20456;-51
2023/04/15 02:41:17;;;;;;;45.53;32.37;;;9.80;99.90;;;;;;5012582;28;20491;-51
2023/04/15 02:43:45;;;;;;;47.37;33.70;;;9.70;99.90;;;;;;5013551;28;20403;-51
2023/04/15 02:46:13;;;;;;;47.53;34.27;;;9.40;99.90;;;;;;5012289;28;20964;-51
2023/04/15 02:48:40;;;;;;;46.83;32.93;;;10.00;99.90;;;;;;5011925;28;20969;-51
2023/04/15 02:51:15;;;;;;;48.37;32.47;;;10.00;99.90;;;;;;5012159;28;20456;-51
2023/04/15 02:53:43;;;;;;;46.67;31.47;;;9.70;99.90;;;;;;5012292;28;20504;-52
2023/04/15 02:56:10;;;;;;;49.33;33.67;;;10.20;99.90;;;;;;5011828;28;20956;-51
2023/04/15 02:58:37;;;;;;;50.93;33.30;;;9.70;99.90;;;;;;5012908;28;20484;-51
2023/04/15 03:01:04;;;;;;;49.07;33.70;;;9.60;99.90;;;;;;5011592;28;20436;-50
2023/04/15 03:03:30;;;;;;;50.03;33.43;;;9.70;99.90;;;;;;5012035;28;20450;-51
2023/04/15 03:05:57;;;;;;;46.50;32.67;;;9.50;99.90;;;;;;5011347;28;20519;-52
2023/04/15 03:08:24;;;;;;;47.73;31.80;;;9.80;99.90;;;;;;5011679;28;20455;-52
2023/04/15 03:10:53;;;;;;;47.00;32.70;;;9.50;99.90;;;;;;5013489;28;20486;-52
2023/04/15 03:13:20;;;;;;;48.87;32.83;;;9.70;99.90;;;;;;5013263;28;21032;-51
2023/04/15 03:15:47;;;;;;;43.80;32.20;;;9.80;99.90;;;;;;5011600;28;20795;-51
2023/04/15 03:18:14;;;;;;;50.87;32.73;;;9.40;99.90;;;;;;5011402;28;20476;-51
2023/04/15 03:20:41;;;;;;;47.47;32.60;;;9.90;99.90;;;;;;5011815;28;20543;-51
2023/04/15 03:23:08;;;;;;;48.50;32.70;;;9.70;99.90;;;;;;5013247;28;20440;-51
2023/04/15 03:25:36;;;;;;;43.87;32.00;;;9.60;99.90;;;;;;5012768;28;20927;-51
2023/04/15 03:28:06;;;;;;;45.27;32.73;;;9.70;99.90;;;;;;5011049;28;21003;-51
2023/04/15 03:30:33;;;;;;;45.27;32.30;;;9.40;99.90;;;;;;5011359;28;20499;-52
2023/04/15 03:33:00;;;;;;;45.83;32.07;;;9.80;99.90;;;;;;5012769;28;20989;-52
2023/04/15 03:35:26;;;;;;;42.83;31.10;;;9.20;99.90;;;;;;5011632;28;20452;-52
2023/04/15 03:37:53;;;;;;;41.70;32.07;;;9.60;99.90;;;;;;5012593;28;20465;-50
2023/04/15 03:40:21;;;;;;;47.77;32.80;;;9.70;99.90;;;;;;5012302;28;20439;-50
2023/04/15 03:42:47;;;;;;;45.63;32.20;;;9.90;99.90;;;;;;5012684;28;20437;-51
2023/04/15 03:45:15;;;;;;;46.83;33.23;;;9.60;99.90;;;;;;5012659;28;20439;-51
2023/04/15 03:47:42;;;;;;;48.13;33.23;;;9.80;99.90;;;;;;5012327;28;20467;-50
2023/04/15 03:50:09;;;;;;;49.43;33.27;;;9.60;99.90;;;;;;5012531;28;20437;-51
2023/04/15 03:52:36;;;;;;;44.07;30.90;;;9.70;99.90;;;;;;5011086;28;20485;-51
2023/04/15 03:55:03;;;;;;;44.60;30.23;;;9.70;99.90;;;;;;5012440;28;20436;-51
2023/04/15 03:57:30;;;;;;;45.50;31.90;;;10.00;99.90;;;;;;5012364;28;20436;-51
2023/04/15 03:59:56;;;;;;;42.00;30.80;;;9.70;99.90;;;;;;5012175;28;20444;-52
2023/04/15 04:02:24;;;;;;;48.00;31.70;;;9.70;99.90;;;;;;5012693;28;20473;-51
2023/04/15 04:04:51;;;;;;;45.10;32.90;;;9.80;99.90;;;;;;5012632;28;20428;-51
2023/04/15 04:07:18;;;;;;;39.93;30.83;;;9.60;99.90;;;;;;5012433;28;20437;-51
2023/04/15 04:09:45;;;;;;;42.80;30.57;;;10.00;99.90;;;;;;5012078;28;20495;-51
2023/04/15 04:12:11;;;;;;;42.80;32.33;;;9.80;99.90;;;;;;5012529;28;20816;-51
2023/04/15 04:14:38;;;;;;;39.20;29.70;;;10.00;99.90;;;;;;5012446;28;20439;-51
2023/04/15 04:17:05;;;;;;;39.63;29.30;;;9.60;99.90;;;;;;5011444;28;20440;-51
2023/04/15 04:19:33;;;;;;;47.80;30.60;;;9.80;99.90;;;;;;5011828;28;20534;-52
2023/04/15 04:22:00;;;;;;;41.30;30.80;;;10.00;99.90;;;;;;5012288;28;20444;-52
2023/04/15 04:24:26;;;;;;;40.93;29.67;;;9.80;99.90;;;;;;5012445;28;20826;-51
2023/04/15 04:26:55;;;;;;;40.23;29.17;;;9.80;99.90;;;;;;5010732;28;20452;-52
2023/04/15 04:29:21;;;;;;;39.03;29.90;;;10.00;99.90;;;;;;5011707;28;20453;-51
2023/04/15 04:31:48;;;;;;;38.97;29.10;;;10.10;99.90;;;;;;5012077;28;20432;-52
2023/04/15 04:34:15;;;;;;;40.50;28.57;;;9.90;99.90;;;;;;5011932;28;20980;-52
2023/04/15 04:36:43;;;;;;;39.33;29.80;;;10.40;99.90;;;;;;5012011;28;20432;-51
2023/04/15 04:39:09;;;;;;;36.87;28.47;;;10.10;99.90;;;;;;5010435;28;21043;-52
2023/04/15 04:41:36;;;;;;;43.00;30.23;;;10.10;99.90;;;;;;5011961;28;20527;-51
2023/04/15 04:44:03;;;;;;;40.60;29.40;;;9.60;99.90;;;;;;5011942;28;20440;-51
2023/04/15 04:46:29;;;;;;;40.10;29.43;;;10.40;99.90;;;;;;5011970;28;20503;-51
2023/04/15 04:48:56;;;;;;;37.77;27.93;;;10.10;99.90;;;;;;5011369;28;20465;-51
2023/04/15 04:51:22;;;;;;;38.50;27.67;;;10.00;99.90;;;;;;5012117;28;20433;-51
2023/04/15 04:53:50;;;;;;;39.03;29.57;;;10.10;99.90;;;;;;5011881;28;20808;-51
2023/04/15 04:56:17;;;;;;;38.13;28.70;;;9.80;99.90;;;;;;5011868;28;20543;-52
2023/04/15 04:58:44;;;;;;;36.23;27.90;;;10.20;99.90;;;;;;5011306;28;20999;-52
2023/04/15 05:01:10;;;;;;;36.77;27.20;;;10.10;99.90;;;;;;5011778;28;20439;-51
2023/04/15 05:03:37;;;;;;;36.50;27.67;;;9.70;99.90;;;;;;5011757;28;20438;-52
2023/04/15 05:06:06;;;;;;;33.37;26.80;;;10.20;99.90;;;;;;5011742;28;20403;-52
2023/04/15 05:08:32;;;;;;;31.77;26.13;;;9.60;99.90;;;;;;5011543;28;20482;-52
2023/04/15 05:11:00;;;;;;;31.97;26.33;;;10.10;99.90;;;;;;5010573;28;20452;-52
2023/04/15 05:13:27;;;;;;;32.37;25.20;;;9.90;99.90;;;;;;5011672;28;20480;-52
2023/04/15 05:15:54;;;;;;;33.63;26.63;;;10.20;99.90;;;;;;5011537;28;20437;-51
2023/04/15 05:18:20;;;;;;;30.13;25.63;;;10.10;99.90;;;;;;5011451;28;20457;-52
2023/04/15 05:20:48;;;;;;;30.60;25.80;;;10.10;99.90;;;;;;5011658;28;20439;-52
2023/04/15 05:23:15;;;;;;;31.23;24.80;;;10.30;99.90;;;;;;5011528;28;20961;-51
2023/04/15 05:25:42;;;;;;;30.43;24.20;;;10.00;99.90;;;;;;5011494;28;20668;-53
2023/04/15 05:28:10;;;;;;;28.30;22.87;;;9.90;99.90;;;;;;5011426;28;20547;-51
2023/04/15 05:30:36;;;;;;;29.37;24.20;;;10.00;99.90;;;;;;5015025;28;20437;-51
2023/04/15 05:33:04;;;;;;;27.60;23.70;;;10.30;99.90;;;;;;5014774;28;20476;-52
2023/04/15 05:35:30;;;;;;;30.50;23.50;;;10.20;99.90;;;;;;5015907;28;20526;-52
2023/04/15 05:37:57;;;;;;;28.60;23.90;;;10.30;99.90;;;;;;5013459;28;20473;-52
2023/04/15 05:40:23;;;;;;;27.87;22.77;;;10.20;99.90;;;;;;5014561;28;20456;-52
2023/04/15 05:42:50;;;;;;;26.57;23.73;;;10.40;99.90;;;;;;5014690;28;20439;-52
2023/04/15 05:45:19;;;;;;;23.87;21.00;;;10.50;99.90;;;;;;5014811;28;20947;-52
2023/04/15 05:47:45;;;;;;;27.63;22.67;;;10.50;99.90;;;;;;5014768;28;20454;-51
2023/04/15 05:50:12;;;;;;;25.40;22.70;;;10.50;99.90;;;;;;5014299;28;20473;-52
2023/04/15 05:52:39;;;;;;;25.03;21.77;;;10.70;99.90;;;;;;5014573;28;20536;-52
2023/04/15 05:55:06;;;;;;;22.80;20.33;;;10.10;99.90;;;;;;5014557;28;20526;-52
2023/04/15 05:57:32;;;;;;;26.10;21.13;;;10.50;99.90;;;;;;5013020;28;20415;-52
2023/04/15 05:59:59;;;;;;;23.30;19.50;;;10.70;99.90;;;;;;5014344;28;20747;-50
2023/04/15 06:02:27;;;;;;;20.07;17.47;;;10.40;99.90;;;;;;5014386;28;20978;-53
2023/04/15 06:04:54;;;;;;;20.80;18.67;;;10.60;99.90;;;;;;5014417;28;20744;-52
2023/04/15 06:07:20;;;;;;;23.07;18.50;;;10.10;99.90;;;;;;5014284;28;20455;-53
2023/04/15 06:09:47;;;;;;;22.30;18.50;;;10.30;99.90;;;;;;5013889;28;20990;-51
2023/04/15 06:12:14;;;;;;;21.97;17.90;;;11.00;99.90;;;;;;5014084;28;20808;-52
2023/04/15 06:14:40;;;;;;;21.17;18.00;;;11.00;99.90;;;;;;5014248;28;20456;-53
2023/04/15 06:17:07;;;;;;;21.53;17.67;;;11.20;99.90;;;;;;5014229;28;20404;-52
2023/04/15 06:19:36;;;;;;;20.00;18.00;;;11.10;99.90;;;;;;5013797;28;20511;-52
2023/04/15 06:22:03;;;;;;;20.10;16.77;;;11.20;99.90;;;;;;5014036;28;20479;-52
2023/04/15 06:24:30;;;;;;;17.97;16.10;;;11.00;99.90;;;;;;5013939;28;20491;-51
2023/04/15 06:26:57;;;;;;;18.27;15.93;;;10.90;99.90;;;;;;5013666;28;20450;-52
2023/04/15 06:29:23;;;;;;;19.43;15.90;;;11.20;99.90;;;;;;5013723;28;21182;-52
2023/04/15 06:31:50;;;;;;;17.07;15.37;;;11.20;99.90;;;;;;5013952;28;20406;-51
2023/04/15 06:34:17;;;;;;;16.00;14.20;;;11.10;99.90;;;;;;5013880;28;20510;-52
2023/04/15 06:36:45;;;;;;;18.33;15.60;;;11.10;99.90;;;;;;5013514;28;20469;-51
2023/04/15 06:39:11;;;;;;;16.40;14.80;;;11.40;99.90;;;;;;5013057;28;20480;-51
2023/04/15 06:41:38;;;;;;;15.50;13.97;;;11.60;99.90;;;;;;5012904;28;20434;-51
2023/04/15 06:44:05;;;;;;;16.30;14.70;;;11.50;99.90;;;;;;5013616;28;20434;-51
2023/04/15 06:46:31;;;;;;;15.97;14.10;;;11.50;99.90;;;;;;5013430;28;20883;-52
2023/04/15 06:48:58;;;;;;;17.33;13.83;;;11.10;99.90;;;;;;5013184;28;20792;-51
2023/04/15 06:51:25;;;;;;;15.40;13.90;;;11.40;99.90;;;;;;5013573;28;20781;-52
2023/04/15 06:53:54;;;;;;;17.20;15.50;;;11.70;99.90;;;;;;5013106;28;21055;-53
2023/04/15 06:56:20;;;;;;;13.90;12.50;;;11.80;99.90;;;;;;5013177;28;20433;-52
2023/04/15 06:58:47;;;;;;;15.90;12.93;;;11.60;99.90;;;;;;5012775;28;20482;-53
2023/04/15 07:01:14;;;;;;;14.97;13.47;;;12.00;99.90;;;;;;5013159;28;20448;-52
2023/04/15 07:03:40;;;;;;;16.10;13.70;;;11.70;99.90;;;;;;5013633;28;20427;-53
2023/04/15 07:06:08;;;;;;;17.60;14.20;;;11.80;99.90;;;;;;5013270;28;20494;-53
2023/04/15 07:08:34;;;;;;;16.80;13.40;;;12.00;99.90;;;;;;5012838;28;20463;-52
2023/04/15 07:11:02;;;;;;;15.13;13.60;;;11.60;99.90;;;;;;5013144;28;20437;-51
2023/04/15 07:13:31;;;;;;;14.43;13.00;;;11.70;99.90;;;;;;5013045;28;20443;-51
2023/04/15 07:15:58;;;;;;;15.80;13.60;;;12.00;99.90;;;;;;5012821;28;20445;-51
2023/04/15 07:18:25;;;;;;;14.27;12.97;;;11.80;99.90;;;;;;5013010;28;20430;-51
2023/04/15 07:20:51;;;;;;;15.53;13.30;;;11.90;99.90;;;;;;5012744;28;20435;-52
2023/04/15 07:23:18;;;;;;;17.80;13.03;;;12.20;99.90;;;;;;5012823;28;20423;-52
2023/04/15 07:25:44;;;;;;;15.83;14.10;;;11.90;99.90;;;;;;5012910;28;20434;-51
2023/04/15 07:28:12;;;;;;;15.03;13.50;;;11.90;99.90;;;;;;5012490;28;20433;-52
2023/04/15 07:30:39;;;;;;;14.70;13.37;;;11.90;99.90;;;;;;5012716;28;20549;-51
2023/04/15 07:33:06;;;;;;;13.80;12.40;;;11.80;99.90;;;;;;5011552;28;20791;-52
2023/04/15 07:35:32;;;;;;;16.60;15.00;;;12.20;99.90;;;;;;5012367;28;20472;-53
2023/04/15 07:37:59;;;;;;;17.47;13.30;;;12.00;99.90;;;;;;5012536;28;20485;-53
2023/04/15 07:40:26;;;;;;;17.00;15.13;;;12.20;99.90;;;;;;5012254;28;20953;-52
2023/04/15 07:42:52;;;;;;;16.33;14.60;;;12.50;99.90;;;;;;5012592;28;20874;-52
2023/04/15 07:45:20;;;;;;;17.03;15.33;;;12.30;99.90;;;;;;5012367;28;20443;-53
2023/04/15 07:47:47;;;;;;;15.03;13.50;;;11.90;99.90;;;;;;5011929;28;20465;-52
2023/04/15 07:50:16;;;;;;;17.20;15.40;;;11.60;99.90;;;;;;5012170;28;20446;-53
2023/04/15 07:52:42;;;;;;;14.67;13.27;;;11.80;99.90;;;;;;5012803;28;20524;-53
2023/04/15 07:55:09;;;;;;;15.43;14.00;;;11.90;99.90;;;;;;5012429;28;20452;-52
2023/04/15 07:57:36;;;;;;;18.30;16.50;;;12.00;99.90;;;;;;5012651;28;20442;-53
2023/04/15 08:00:06;;;;;;;16.47;14.77;;;11.90;99.90;;;;;;5052848;23;21017;-53
2023/04/15 08:02:44;;;;;;;16.00;14.50;;;12.00;99.90;;;;;;5036334;28;20423;-51
2023/04/15 08:05:10;;;;;;;15.10;13.50;;;11.90;99.90;;;;;;5032802;28;20433;-53
2023/04/15 08:07:37;;;;;;;19.30;16.00;;;11.70;99.90;;;;;;5031666;28;20944;-53
2023/04/15 08:10:05;;;;;;;16.87;15.20;;;11.60;99.90;;;;;;5031031;28;20461;-52
2023/04/15 08:12:31;;;;;;;17.27;15.50;;;11.50;99.90;;;;;;5031522;28;20414;-51
2023/04/15 08:14:58;;;;;;;17.40;15.70;;;11.80;99.90;;;;;;5031585;28;20474;-53
2023/04/15 08:17:25;;;;;;;17.13;15.40;;;11.70;99.90;;;;;;5031498;28;20530;-53
2023/04/15 08:19:53;;;;;;;16.60;14.70;;;11.70;99.90;;;;;;5031222;28;20454;-53
2023/04/15 08:22:19;;;;;;;18.67;16.77;;;11.70;99.90;;;;;;5031694;28;20444;-53
2023/04/15 08:24:46;;;;;;;22.90;18.30;;;12.00;99.90;;;;;;5031684;28;20521;-53
2023/04/15 08:27:13;;;;;;;17.27;15.70;;;11.70;99.90;;;;;;5031723;28;21034;-52
2023/04/15 08:29:40;;;;;;;19.50;16.60;;;11.80;99.90;;;;;;5031731;28;20460;-53
2023/04/15 08:32:06;;;;;;;18.00;16.20;;;11.70;99.90;;;;;;5031636;28;20437;-52
2023/04/15 08:34:33;;;;;;;18.50;16.80;;;11.60;99.90;;;;;;5013675;28;21036;-52
2023/04/15 08:37:01;;;;;;;16.93;15.20;;;12.30;99.90;;;;;;5031369;28;20990;-53
2023/04/15 08:39:28;;;;;;;16.53;14.83;;;12.30;99.90;;;;;;5030951;28;20454;-52
2023/04/15 08:42:00;;;;;;;18.27;16.47;;;12.10;99.90;;;;;;5031588;28;21133;-52
2023/04/15 08:44:29;;;;;;;17.83;16.13;;;12.40;99.90;;;;;;5031471;28;20506;-53
2023/04/15 08:46:57;;;;;;;17.03;15.27;;;12.30;99.90;;;;;;5031282;28;20436;-53
2023/04/15 08:49:27;;;;;;;18.20;16.27;;;11.80;99.90;;;;;;5031199;28;20465;-53
2023/04/15 08:51:56;;;;;;;17.10;15.50;;;12.10;99.90;;;;;;5031739;28;20468;-52
2023/04/15 08:54:24;;;;;;;17.53;15.67;;;12.30;99.90;;;;;;5031393;28;20902;-53
2023/04/15 08:56:52;;;;;;;16.93;15.30;;;12.00;99.90;;;;;;5034798;28;20413;-52
2023/04/15 08:59:20;;;;;;;17.37;15.63;;;11.60;99.90;;;;;;5031116;28;20518;-53
2023/04/15 09:01:46;;;;;;;17.30;15.70;;;12.30;99.90;;;;;;5030768;28;20409;-52
2023/04/15 09:04:14;;;;;;;17.87;16.17;;;11.80;99.90;;;;;;5033205;28;20429;-54
2023/04/15 09:06:41;;;;;;;18.17;16.37;;;12.00;99.90;;;;;;5034740;28;20437;-51
2023/04/15 09:09:07;;;;;;;16.80;15.10;;;12.20;99.90;;;;;;5034493;28;20462;-52
2023/04/15 09:11:35;;;;;;;18.67;16.60;;;11.70;99.90;;;;;;5034373;28;20437;-51
2023/04/15 09:14:02;;;;;;;19.43;17.50;;;11.80;99.90;;;;;;5034654;28;20488;-53
2023/04/15 09:16:29;;;;;;;16.77;14.97;;;12.10;99.90;;;;;;5034475;28;20468;-52
2023/04/15 09:18:56;;;;;;;18.60;16.80;;;12.60;99.90;;;;;;5034214;28;20440;-52
2023/04/15 09:21:23;;;;;;;16.60;14.90;;;12.20;99.90;;;;;;5034308;28;20437;-54
2023/04/15 09:23:57;;;;;;;17.47;15.77;;;12.20;99.90;;;;;;5034533;28;20446;-52
2023/04/15 09:26:36;;;;;;;16.80;15.20;;;12.20;99.90;;;;;;5034235;28;20507;-52
2023/04/15 09:29:06;;;;;;;16.80;15.20;;;12.20;99.90;;;;;;5033940;28;20468;-52
2023/04/15 09:31:32;;;;;;;16.93;15.33;;;12.10;99.90;;;;;;5034185;28;20563;-53
2023/04/15 09:33:59;;;;;;;17.83;16.13;;;12.20;99.90;;;;;;5033952;28;20472;-53
2023/04/15 09:36:28;;;;;;;16.63;15.13;;;12.30;99.90;;;;;;5033911;28;20449;-51
2023/04/15 09:38:56;;;;;;;15.50;14.10;;;12.50;99.90;;;;;;5034004;28;20467;-53
2023/04/15 09:41:24;;;;;;;16.03;14.43;;;12.30;99.90;;;;;;5034352;28;20459;-51
2023/04/15 09:43:52;;;;;;;15.20;13.60;;;12.10;99.90;;;;;;5033957;28;20447;-52
2023/04/15 09:46:19;;;;;;;17.53;15.73;;;11.80;99.90;;;;;;5034011;28;20461;-52
2023/04/15 09:48:45;;;;;;;17.00;15.40;;;11.70;99.90;;;;;;5033862;28;20470;-55
2023/04/15 09:51:13;;;;;;;17.63;15.87;;;12.40;99.90;;;;;;5037843;28;20465;-51
2023/04/15 09:53:39;;;;;;;15.80;14.27;;;12.30;99.90;;;;;;5033840;28;20442;-51
2023/04/15 09:56:07;;;;;;;18.07;16.17;;;12.20;99.90;;;;;;5033642;28;20487;-52
2023/04/15 09:58:37;;;;;;;15.80;14.40;;;12.20;99.90;;;;;;5033472;28;20479;-54
2023/04/15 10:01:06;;;;;;;15.50;14.10;;;12.30;99.90;;;;;;5015873;28;20474;-52
2023/04/15 10:03:35;;;;;;;17.13;15.53;;;11.90;99.90;;;;;;5033500;28;20492;-52
2023/04/15 10:06:04;;;;;;;16.30;14.70;;;12.40;99.90;;;;;;5033393;28;20442;-53
2023/04/15 10:08:33;;;;;;;15.40;14.07;;;12.90;99.90;;;;;;5032777;28;20557;-51
2023/04/15 10:11:02;;;;;;;15.57;14.07;;;12.20;99.90;;;;;;5033335;28;20966;-51
2023/04/15 10:13:33;;;;;;;15.53;14.13;;;12.00;99.90;;;;;;5033560;28;20419;-53
2023/04/15 10:16:06;;;;;;;15.87;14.37;;;11.80;99.90;;;;;;5031956;28;20477;-52
2023/04/15 10:18:35;;;;;;;16.47;14.97;;;12.50;99.90;;;;;;5032978;28;20548;-51
2023/04/15 10:21:02;;;;;;;17.20;14.63;;;11.80;99.90;;;;;;5033251;28;20439;-53
2023/04/15 10:23:29;;;;;;;16.33;14.73;;;12.10;99.90;;;;;;5033379;28;21001;-52
2023/04/15 10:25:57;;;;;;;16.00;14.50;;;12.00;99.90;;;;;;5032948;28;20409;-52
2023/04/15 10:28:24;;;;;;;17.30;15.60;;;12.20;99.90;;;;;;5032592;28;20429;-53
2023/04/15 10:30:52;;;;;;;18.00;15.00;;;11.80;99.90;;;;;;5033172;28;20449;-52
2023/04/15 10:33:22;;;;;;;16.63;15.13;;;12.80;99.90;;;;;;5032841;28;20440;-53
2023/04/15 10:35:51;;;;;;;17.23;15.63;;;12.30;99.90;;;;;;5032937;28;20963;-52
2023/04/15 10:38:32;;;;;;;15.73;14.23;;;12.40;99.90;;;;;;5032623;28;20802;-51
2023/04/15 10:41:13;;;;;;;17.17;15.47;;;11.90;99.90;;;;;;5037255;28;20434;-53
2023/04/15 10:43:40;;;;;;;15.17;13.80;;;12.70;99.90;;;;;;5033094;28;20476;-51
2023/04/15 10:46:07;;;;;;;18.50;16.73;;;13.00;99.90;;;;;;5033086;28;20434;-53
2023/04/15 10:48:33;;;;;;;15.93;14.47;;;12.80;99.90;;;;;;5032349;28;20449;-51
2023/04/15 10:51:02;;;;;;;16.33;14.73;;;12.60;99.90;;;;;;5032523;28;20799;-52
2023/04/15 10:53:29;;;;;;;15.67;14.37;;;12.60;99.90;;;;;;5032770;28;20504;-53
2023/04/15 10:55:57;;;;;;;16.43;15.00;;;13.00;99.90;;;;;;5015118;28;20485;-51
2023/04/15 10:58:24;;;;;;;16.60;15.00;;;12.70;99.90;;;;;;5032473;28;20842;-52
2023/04/15 11:00:53;;;;;;;15.70;14.30;;;12.30;99.90;;;;;;5032943;28;20504;-52
2023/04/15 11:03:36;;;;;;;14.83;13.37;;;12.00;99.90;;;;;;5031985;28;20432;-51
2023/04/15 11:06:05;;;;;;;16.70;15.20;;;12.70;99.90;;;;;;5032388;28;20434;-53
2023/04/15 11:08:55;;;;;;;15.10;13.70;;;12.50;99.90;;;;;;5032094;28;20422;-53
2023/04/15 11:11:21;;;;;;;14.90;13.50;;;12.80;99.90;;;;;;5032223;28;20516;-52
2023/04/15 11:13:49;;;;;;;15.90;14.40;;;12.60;99.90;;;;;;5032028;28;20450;-52
2023/04/15 11:16:16;;;;;;;15.87;14.27;;;12.80;99.90;;;;;;5032018;28;20449;-52
2023/04/15 11:18:53;;;;;;;16.27;14.67;;;12.60;99.90;;;;;;5031673;28;20783;-52
2023/04/15 11:21:25;;;;;;;16.30;14.80;;;13.00;99.90;;;;;;5032181;28;20466;-52
2023/04/15 11:23:52;;;;;;;17.10;15.30;;;12.50;99.90;;;;;;5031802;28;20623;-53
2023/04/15 11:26:18;;;;;;;16.53;14.77;;;12.70;99.90;;;;;;5031688;28;20959;-51
2023/04/15 11:28:46;;;;;;;16.33;14.73;;;13.00;99.90;;;;;;5013768;28;20432;-52
2023/04/15 11:31:15;;;;;;;15.30;13.80;;;12.50;99.90;;;;;;5014124;28;20433;-51
2023/04/15 11:33:46;;;;;;;17.30;15.60;;;13.00;99.90;;;;;;5032505;28;20946;-56
2023/04/15 11:36:13;;;;;;;15.20;13.60;;;12.50;99.90;;;;;;5035493;28;20899;-52
2023/04/15 11:38:44;;;;;;;16.53;14.73;;;12.50;99.90;;;;;;5031972;28;20857;-52
2023/04/15 11:41:11;;;;;;;17.43;15.60;;;12.20;99.90;;;;;;5031598;28;20514;-51
2023/04/15 11:43:38;;;;;;;15.77;14.27;;;12.70;99.90;;;;;;5031654;28;20434;-53
2023/04/15 11:46:05;;;;;;;15.97;14.47;;;12.90;99.90;;;;;;5032225;28;20450;-51
2023/04/15 11:48:33;;;;;;;15.70;14.20;;;12.30;99.90;;;;;;5031034;28;20988;-52
2023/04/15 11:51:01;;;;;;;16.17;14.57;;;12.60;99.90;;;;;;5031284;28;20559;-54
2023/04/15 11:53:37;;;;;;;15.43;13.80;;;12.60;99.90;;;;;;5031465;28;20762;-53
2023/04/15 11:56:07;;;;;;;16.60;15.00;;;12.20;99.90;;;;;;5031809;28;20530;-52
2023/04/15 11:58:36;;;;;;;17.00;15.30;;;12.70;99.90;;;;;;5031069;28;20470;-52
2023/04/15 12:01:02;;;;;;;16.73;15.13;;;12.90;99.90;;;;;;5031636;28;20839;-53
2023/04/15 12:03:30;;;;;;;16.40;14.70;;;12.70;99.90;;;;;;5031145;28;20532;-52
2023/04/15 12:06:10;;;;;;;17.17;15.50;;;12.80;99.90;;;;;;5031334;28;20452;-52
2023/04/15 12:08:59;;;;;;;17.87;16.07;;;12.80;99.90;;;;;;5031150;28;20484;-54
2023/04/15 12:11:39;;;;;;;14.93;13.43;;;12.60;99.90;;;;;;5031425;28;20437;-52
2023/04/15 12:14:10;;;;;;;17.40;15.70;;;12.50;99.90;;;;;;5031186;28;20526;-52
2023/04/15 12:16:39;;;;;;;15.67;14.07;;;12.50;99.90;;;;;;5031153;28;20815;-53
2023/04/15 12:19:08;;;;;;;14.77;13.37;;;12.70;99.90;;;;;;5030684;28;20457;-52
2023/04/15 12:21:36;;;;;;;15.50;14.00;;;12.90;99.90;;;;;;5031319;28;20529;-51
2023/04/15 12:24:04;;;;;;;15.97;14.47;;;13.00;99.90;;;;;;5013681;28;20475;-53
2023/04/15 12:26:35;;;;;;;17.10;13.10;;;13.20;99.90;;;;;;5031113;28;20476;-52
2023/04/15 12:29:03;;;;;;;15.23;13.73;;;12.80;99.90;;;;;;5035643;28;20455;-52
2023/04/15 12:31:30;;;;;;;14.47;13.07;;;12.50;99.90;;;;;;5031401;28;20442;-53
2023/04/15 12:33:57;;;;;;;13.50;12.10;;;12.90;99.90;;;;;;5031302;28;20522;-53